Time;durP1;ratioP1;P1;durP2;ratioP2;P2;SDS_P1;SDS_P2;PMS_P1;PMS_P2;Temp;Humidity;BMP_temperature;BMP_pressure;BME280_temperature;BME280_humidity;BME280_pressure;Samples;Min_cycle;Max_cycle;Signal;HPM_P1;HPM_P2
2020/12/18 00:00:54;;;;;;;34.53;4.80;;;;;;;;;;5054522;28;20036;-39
2020/12/18 00:03:22;;;;;;;42.63;5.10;;;;;;;;;;5059629;28;20025;-39
2020/12/18 00:05:49;;;;;;;39.42;4.43;;;;;;;;;;5062875;28;20060;-40
2020/12/18 00:08:16;;;;;;;37.08;3.80;;;;;;;;;;5591874;22;20007;-40
2020/12/18 00:10:43;;;;;;;48.13;4.45;;;;;;;;;;5050898;28;20039;-41
2020/12/18 00:13:10;;;;;;;49.58;4.25;;;;;;;;;;5560346;22;20848;-40
2020/12/18 00:15:38;;;;;;;44.58;4.63;;;;;;;;;;5565481;22;20059;-44
2020/12/18 00:18:05;;;;;;;61.08;5.60;;;;;;;;;;5051949;28;20040;-40
2020/12/18 00:20:32;;;;;;;48.75;4.50;;;;;;;;;;5054517;28;20070;-39
2020/12/18 00:22:59;;;;;;;55.40;4.80;;;;;;;;;;5060630;28;20044;-43
2020/12/18 00:25:26;;;;;;;39.97;4.13;;;;;;;;;;5062258;28;20052;-41
2020/12/18 00:27:53;;;;;;;59.25;6.35;;;;;;;;;;5059320;28;20099;-42
2020/12/18 00:30:21;;;;;;;41.70;4.18;;;;;;;;;;5066087;28;20062;-40
2020/12/18 00:32:47;;;;;;;42.58;3.83;;;;;;;;;;5062626;28;20028;-41
2020/12/18 00:35:15;;;;;;;46.80;4.40;;;;;;;;;;5063009;28;20656;-42
2020/12/18 00:37:42;;;;;;;73.43;4.57;;;;;;;;;;5054578;28;20029;-43
2020/12/18 00:40:09;;;;;;;29.17;3.50;;;;;;;;;;5062795;28;20021;-41
2020/12/18 00:42:37;;;;;;;59.95;4.43;;;;;;;;;;5058941;28;20104;-41
2020/12/18 00:45:04;;;;;;;49.60;4.57;;;;;;;;;;5064027;28;20013;-41
2020/12/18 00:47:31;;;;;;;36.03;3.88;;;;;;;;;;5053604;28;20029;-44
2020/12/18 00:49:58;;;;;;;62.75;5.50;;;;;;;;;;5054692;28;20029;-43
2020/12/18 00:52:26;;;;;;;42.58;4.00;;;;;;;;;;5065210;28;20033;-41
2020/12/18 00:54:53;;;;;;;36.22;4.85;;;;;;;;;;5064541;28;20112;-41
2020/12/18 00:57:20;;;;;;;37.25;4.00;;;;;;;;;;5068633;28;20040;-47
2020/12/18 00:59:48;;;;;;;33.63;3.42;;;;;;;;;;5062764;28;20021;-42
2020/12/18 01:02:15;;;;;;;26.35;3.22;;;;;;;;;;5069634;28;20035;-42
2020/12/18 01:04:42;;;;;;;20.88;2.42;;;;;;;;;;5067326;28;20074;-40
2020/12/18 01:07:09;;;;;;;26.85;3.38;;;;;;;;;;5066985;28;20033;-41
2020/12/18 01:09:36;;;;;;;41.47;3.40;;;;;;;;;;5071214;28;20043;-41
2020/12/18 01:12:03;;;;;;;43.60;4.05;;;;;;;;;;5063232;28;20593;-41
2020/12/18 01:14:30;;;;;;;43.95;4.28;;;;;;;;;;5069032;28;20020;-40
2020/12/18 01:16:57;;;;;;;33.40;3.95;;;;;;;;;;5064690;28;20036;-42
2020/12/18 01:19:25;;;;;;;32.03;4.72;;;;;;;;;;5065679;28;20076;-42
2020/12/18 01:21:53;;;;;;;28.15;3.40;;;;;;;;;;5067299;28;20024;-40
2020/12/18 01:24:20;;;;;;;26.27;2.95;;;;;;;;;;5063841;28;20037;-40
2020/12/18 01:26:47;;;;;;;45.67;4.90;;;;;;;;;;5064973;28;20028;-41
2020/12/18 01:29:15;;;;;;;47.55;4.50;;;;;;;;;;5062696;28;20116;-42
2020/12/18 01:31:42;;;;;;;29.58;3.85;;;;;;;;;;5066708;28;20095;-42
2020/12/18 01:34:09;;;;;;;31.40;3.42;;;;;;;;;;5064120;28;20082;-42
2020/12/18 01:36:37;;;;;;;33.80;3.75;;;;;;;;;;5068625;28;20041;-42
2020/12/18 01:39:05;;;;;;;44.42;3.90;;;;;;;;;;5069949;28;20017;-41
2020/12/18 01:41:32;;;;;;;29.85;4.03;;;;;;;;;;5067373;28;20100;-41
2020/12/18 01:44:00;;;;;;;23.77;3.20;;;;;;;;;;5066810;28;20039;-42
2020/12/18 01:46:30;;;;;;;31.98;3.90;;;;;;;;;;5066178;28;20021;-42
2020/12/18 01:48:58;;;;;;;92.60;6.15;;;;;;;;;;5069126;28;20024;-42
2020/12/18 01:51:25;;;;;;;35.13;3.85;;;;;;;;;;5063725;28;20077;-41
2020/12/18 01:53:52;;;;;;;25.52;3.28;;;;;;;;;;5055435;28;20025;-41
2020/12/18 01:56:20;;;;;;;24.63;2.97;;;;;;;;;;5065074;28;20176;-41
2020/12/18 01:58:49;;;;;;;29.65;3.50;;;;;;;;;;5066514;28;20525;-41
2020/12/18 02:01:16;;;;;;;36.97;3.45;;;;;;;;;;5064246;28;20627;-41
2020/12/18 02:03:43;;;;;;;17.38;3.08;;;;;;;;;;5045445;28;20036;-43
2020/12/18 02:06:11;;;;;;;26.25;3.90;;;;;;;;;;5063409;28;20107;-42
2020/12/18 02:08:40;;;;;;;39.05;4.50;;;;;;;;;;5061064;28;20411;-43
2020/12/18 02:11:07;;;;;;;30.83;3.75;;;;;;;;;;5061416;28;20047;-42
2020/12/18 02:13:35;;;;;;;40.33;3.58;;;;;;;;;;5048449;28;20514;-43
2020/12/18 02:18:37;;;;;;;22.27;2.38;;;;;;;;;;5537046;22;20045;-41
2020/12/18 02:21:10;;;;;;;23.63;3.40;;;;;;;;;;5023558;28;20045;-44
2020/12/18 02:23:41;;;;;;;15.55;2.28;;;;;;;;;;5021736;28;20140;-44
2020/12/18 02:26:10;;;;;;;19.30;2.08;;;;;;;;;;5539634;22;20027;-41
2020/12/18 02:28:38;;;;;;;11.55;1.90;;;;;;;;;;5032026;28;20045;-42
2020/12/18 02:33:42;;;;;;;28.67;3.13;;;;;;;;;;5325866;22;20142;-41
2020/12/18 02:41:21;;;;;;;77.65;5.82;;;;;;;;;;5322612;22;20074;-43
2020/12/18 02:43:49;;;;;;;34.78;3.03;;;;;;;;;;5022507;28;20029;-41
2020/12/18 02:46:18;;;;;;;24.02;2.78;;;;;;;;;;5013035;28;20447;-41
2020/12/18 02:48:47;;;;;;;21.25;2.50;;;;;;;;;;5011367;28;20037;-43
2020/12/18 02:51:13;;;;;;;26.67;2.85;;;;;;;;;;5012624;28;20122;-42
2020/12/18 02:53:41;;;;;;;27.13;3.13;;;;;;;;;;4995298;28;20021;-42
2020/12/18 02:56:08;;;;;;;30.90;3.95;;;;;;;;;;5010475;28;20562;-41
2020/12/18 02:58:35;;;;;;;26.73;2.63;;;;;;;;;;5010515;28;20503;-42
2020/12/18 03:01:01;;;;;;;22.88;3.30;;;;;;;;;;5011833;28;20141;-42
2020/12/18 03:03:29;;;;;;;27.13;2.95;;;;;;;;;;5011584;28;20128;-41
2020/12/18 03:05:55;;;;;;;21.33;2.45;;;;;;;;;;5011335;28;20436;-41
2020/12/18 03:08:22;;;;;;;28.60;3.15;;;;;;;;;;5012135;28;20026;-42
2020/12/18 03:10:49;;;;;;;18.23;2.55;;;;;;;;;;5011801;28;20120;-42
2020/12/18 03:13:16;;;;;;;27.30;2.47;;;;;;;;;;5011430;28;20061;-43
2020/12/18 03:15:43;;;;;;;29.80;3.75;;;;;;;;;;5011704;28;20033;-45
2020/12/18 03:18:10;;;;;;;71.90;7.55;;;;;;;;;;5012133;28;20381;-42
2020/12/18 03:20:37;;;;;;;82.30;8.10;;;;;;;;;;5011574;28;20022;-43
2020/12/18 03:23:04;;;;;;;45.72;5.32;;;;;;;;;;5012338;28;20061;-44
2020/12/18 03:25:31;;;;;;;71.68;9.60;;;;;;;;;;5011094;28;20397;-44
2020/12/18 03:27:58;;;;;;;74.53;8.10;;;;;;;;;;5011375;28;20064;-50
2020/12/18 03:30:26;;;;;;;72.35;7.55;;;;;;;;;;5011787;28;20030;-45
2020/12/18 03:32:53;;;;;;;61.63;5.95;;;;;;;;;;5011187;28;20485;-47
2020/12/18 03:35:20;;;;;;;34.65;4.65;;;;;;;;;;5011615;28;20036;-47
2020/12/18 03:37:47;;;;;;;49.42;4.45;;;;;;;;;;5012295;28;20084;-45
2020/12/18 03:40:18;;;;;;;41.50;4.18;;;;;;;;;;5011269;28;20073;-45
2020/12/18 03:42:45;;;;;;;40.50;4.90;;;;;;;;;;5012340;28;20512;-45
2020/12/18 03:45:11;;;;;;;31.75;4.55;;;;;;;;;;5012243;28;20021;-44
2020/12/18 03:47:38;;;;;;;29.83;3.17;;;;;;;;;;5011833;28;20596;-45
2020/12/18 03:50:09;;;;;;;25.95;3.70;;;;;;;;;;5012418;28;20482;-46
2020/12/18 03:52:36;;;;;;;45.47;3.88;;;;;;;;;;5012071;28;20061;-43
2020/12/18 03:55:03;;;;;;;40.78;4.72;;;;;;;;;;5011703;28;20041;-48
2020/12/18 03:57:30;;;;;;;37.20;3.85;;;;;;;;;;5011918;28;20041;-46
2020/12/18 03:59:57;;;;;;;36.08;3.80;;;;;;;;;;5010281;28;20065;-46
2020/12/18 04:02:24;;;;;;;117.13;13.13;;;;;;;;;;5012129;28;20033;-48
2020/12/18 04:04:51;;;;;;;32.65;3.78;;;;;;;;;;5011471;28;20029;-45
2020/12/18 04:07:18;;;;;;;19.20;2.90;;;;;;;;;;5011897;28;20037;-47
2020/12/18 04:09:45;;;;;;;29.08;3.33;;;;;;;;;;5012279;28;20053;-45
2020/12/18 04:12:13;;;;;;;27.23;2.65;;;;;;;;;;5012124;28;20382;-44
2020/12/18 04:14:40;;;;;;;20.17;2.58;;;;;;;;;;5011887;28;20028;-47
2020/12/18 04:17:07;;;;;;;15.48;2.28;;;;;;;;;;5011871;28;20156;-42
2020/12/18 04:19:34;;;;;;;32.63;4.00;;;;;;;;;;5011540;28;20033;-42
2020/12/18 04:22:01;;;;;;;22.17;2.92;;;;;;;;;;5011858;28;20381;-47
2020/12/18 04:24:28;;;;;;;18.00;3.13;;;;;;;;;;5011858;28;20018;-47
2020/12/18 04:26:55;;;;;;;24.08;2.63;;;;;;;;;;5011976;28;20026;-44
2020/12/18 04:29:22;;;;;;;17.30;2.90;;;;;;;;;;5011021;28;20460;-44
2020/12/18 04:31:49;;;;;;;22.80;3.55;;;;;;;;;;5011892;28;20113;-43
2020/12/18 04:34:16;;;;;;;18.58;2.95;;;;;;;;;;5011990;28;20026;-45
2020/12/18 04:36:43;;;;;;;26.40;4.05;;;;;;;;;;5011727;28;20033;-44
2020/12/18 04:39:10;;;;;;;21.60;3.38;;;;;;;;;;5011224;28;20026;-45
2020/12/18 04:41:38;;;;;;;27.52;3.72;;;;;;;;;;5011364;28;20045;-43
2020/12/18 04:44:05;;;;;;;21.02;2.53;;;;;;;;;;5011722;28;20635;-47
2020/12/18 04:46:39;;;;;;;21.45;2.65;;;;;;;;;;5011621;28;20030;-44
2020/12/18 04:49:06;;;;;;;28.50;3.17;;;;;;;;;;5011157;28;20389;-43
2020/12/18 04:51:36;;;;;;;20.77;3.90;;;;;;;;;;5011458;28;20026;-43
2020/12/18 04:54:05;;;;;;;11.68;1.63;;;;;;;;;;5011630;28;20037;-41
2020/12/18 04:56:35;;;;;;;11.73;2.15;;;;;;;;;;5011690;28;20106;-42
2020/12/18 04:59:02;;;;;;;15.57;1.50;;;;;;;;;;5011338;28;20018;-45
2020/12/18 05:01:29;;;;;;;8.77;1.73;;;;;;;;;;5012005;28;20075;-42
2020/12/18 05:03:58;;;;;;;14.95;2.25;;;;;;;;;;5011651;28;20037;-42
2020/12/18 05:06:25;;;;;;;6.65;1.15;;;;;;;;;;5011380;28;20026;-42
2020/12/18 05:08:52;;;;;;;8.27;1.30;;;;;;;;;;5011051;28;20389;-42
2020/12/18 05:11:21;;;;;;;27.48;3.50;;;;;;;;;;5010298;28;20026;-42
2020/12/18 05:13:50;;;;;;;28.15;3.67;;;;;;;;;;5011692;28;20029;-42
2020/12/18 05:16:20;;;;;;;29.42;3.28;;;;;;;;;;5011466;28;20034;-42
2020/12/18 05:18:48;;;;;;;19.98;2.03;;;;;;;;;;5010927;28;20025;-43
2020/12/18 05:21:15;;;;;;;15.60;2.10;;;;;;;;;;5011428;28;20045;-42
2020/12/18 05:23:43;;;;;;;12.57;1.83;;;;;;;;;;5011714;28;20017;-43
2020/12/18 05:26:11;;;;;;;15.35;2.00;;;;;;;;;;5011385;28;20093;-42
2020/12/18 05:28:47;;;;;;;12.18;1.73;;;;;;;;;;5011237;28;20026;-42
2020/12/18 05:31:18;;;;;;;13.35;1.73;;;;;;;;;;5011768;28;20032;-42
2020/12/18 05:33:48;;;;;;;9.25;1.70;;;;;;;;;;5011315;28;20033;-42
2020/12/18 05:36:15;;;;;;;10.52;1.85;;;;;;;;;;5011473;28;20117;-42
2020/12/18 05:38:42;;;;;;;8.23;1.70;;;;;;;;;;5011667;28;20026;-42
2020/12/18 05:41:10;;;;;;;6.90;1.00;;;;;;;;;;5011168;28;20054;-42
2020/12/18 05:43:43;;;;;;;11.18;1.35;;;;;;;;;;5015071;28;20454;-42
2020/12/18 05:46:17;;;;;;;16.20;1.58;;;;;;;;;;5014855;28;20088;-44
2020/12/18 05:48:46;;;;;;;6.30;1.55;;;;;;;;;;5014570;28;20036;-43
2020/12/18 05:51:26;;;;;;;6.25;1.25;;;;;;;;;;5015213;28;20486;-42
2020/12/18 05:54:12;;;;;;;8.73;1.17;;;;;;;;;;5014381;28;20489;-42
2020/12/18 05:56:40;;;;;;;6.57;1.10;;;;;;;;;;5014664;28;20072;-43
2020/12/18 05:59:13;;;;;;;6.93;1.10;;;;;;;;;;5014660;28;20434;-42
2020/12/18 06:01:44;;;;;;;6.35;0.98;;;;;;;;;;5014328;28;20026;-42
2020/12/18 06:04:16;;;;;;;9.23;1.13;;;;;;;;;;5014395;28;20018;-42
2020/12/18 06:06:44;;;;;;;8.83;1.40;;;;;;;;;;5014724;28;20061;-42
2020/12/18 06:09:11;;;;;;;7.60;1.05;;;;;;;;;;5014005;28;20105;-42
2020/12/18 06:11:38;;;;;;;4.75;0.60;;;;;;;;;;5014534;28;20096;-42
2020/12/18 06:14:07;;;;;;;8.40;1.08;;;;;;;;;;5014814;28;20064;-49
2020/12/18 06:16:36;;;;;;;8.90;0.98;;;;;;;;;;5014438;28;20030;-42
2020/12/18 06:19:05;;;;;;;8.40;1.08;;;;;;;;;;5013925;28;20018;-42
2020/12/18 06:21:32;;;;;;;7.22;1.40;;;;;;;;;;5014387;28;20065;-42
2020/12/18 06:23:59;;;;;;;6.93;0.90;;;;;;;;;;5014299;28;20446;-42
2020/12/18 06:26:26;;;;;;;6.07;1.00;;;;;;;;;;5014390;28;20058;-41
2020/12/18 06:28:54;;;;;;;6.20;1.05;;;;;;;;;;5012940;28;20021;-42
2020/12/18 06:31:28;;;;;;;8.35;0.95;;;;;;;;;;5013521;28;20107;-42
2020/12/18 06:33:59;;;;;;;8.50;1.00;;;;;;;;;;5014300;28;20073;-42
2020/12/18 06:37:01;;;;;;;4.75;0.70;;;;;;;;;;5013870;28;20026;-42
2020/12/18 06:39:29;;;;;;;6.28;0.90;;;;;;;;;;4953083;29;20039;-42
2020/12/18 06:42:09;;;;;;;4.40;1.02;;;;;;;;;;5002753;28;20073;-42
2020/12/18 06:44:37;;;;;;;6.10;1.10;;;;;;;;;;5014034;28;20030;-41
2020/12/18 06:47:14;;;;;;;4.00;0.80;;;;;;;;;;5014039;28;20029;-41
2020/12/18 06:49:57;;;;;;;2.17;0.60;;;;;;;;;;5013430;28;20531;-42
2020/12/18 06:52:23;;;;;;;;;;;;;;;;;;5013997;28;20030;-42
2020/12/18 06:54:59;;;;;;;5.28;0.85;;;;;;;;;;5013920;28;19905;-43
2020/12/18 06:57:26;;;;;;;21.52;1.98;;;;;;;;;;5013434;28;20048;-42
2020/12/18 07:00:13;;;;;;;36.35;4.32;;;;;;;;;;5013035;28;20485;-43
2020/12/18 07:02:40;;;;;;;17.17;2.20;;;;;;;;;;5013752;28;20034;-42
2020/12/18 07:05:26;;;;;;;15.52;2.05;;;;;;;;;;5013139;28;20026;-41
2020/12/18 07:07:54;;;;;;;11.52;1.77;;;;;;;;;;5013685;28;20474;-42
2020/12/18 07:10:26;;;;;;;9.27;1.50;;;;;;;;;;5012478;28;20041;-42
2020/12/18 07:12:55;;;;;;;18.73;1.90;;;;;;;;;;5013434;28;20022;-43
2020/12/18 07:15:22;;;;;;;13.23;1.40;;;;;;;;;;5012942;28;20026;-41
2020/12/18 07:17:52;;;;;;;7.68;1.70;;;;;;;;;;5013256;28;20034;-43
2020/12/18 07:20:19;;;;;;;11.07;1.00;;;;;;;;;;5012637;28;20041;-42
2020/12/18 07:22:46;;;;;;;8.00;1.45;;;;;;;;;;5012883;28;20030;-42
2020/12/18 07:25:13;;;;;;;9.90;1.10;;;;;;;;;;5011902;28;20388;-42
2020/12/18 07:27:40;;;;;;;5.68;1.65;;;;;;;;;;5013089;28;20528;-44
2020/12/18 07:30:30;;;;;;;6.32;0.98;;;;;;;;;;5012520;28;20059;-47
2020/12/18 07:32:56;;;;;;;4.47;1.30;;;;;;;;;;5012733;28;20030;-42
2020/12/18 07:35:23;;;;;;;4.63;0.95;;;;;;;;;;5012806;28;20052;-42
2020/12/18 07:37:50;;;;;;;2.95;0.80;;;;;;;;;;5012700;28;20113;-41
2020/12/18 07:40:17;;;;;;;6.80;1.10;;;;;;;;;;5011997;28;20050;-44
2020/12/18 07:42:44;;;;;;;20.42;2.45;;;;;;;;;;5012638;28;20393;-42
2020/12/18 07:45:11;;;;;;;11.00;1.40;;;;;;;;;;5012955;28;20060;-44
2020/12/18 07:47:39;;;;;;;11.82;1.60;;;;;;;;;;5012711;28;20026;-42
2020/12/18 07:50:07;;;;;;;7.45;1.08;;;;;;;;;;5012031;28;20504;-43
2020/12/18 07:52:37;;;;;;;10.75;1.40;;;;;;;;;;5012658;28;20057;-42
2020/12/18 07:55:05;;;;;;;10.02;0.90;;;;;;;;;;5012689;28;20109;-42
2020/12/18 07:57:33;;;;;;;4.15;0.70;;;;;;;;;;5012439;28;20044;-43
2020/12/18 08:00:09;;;;;;;6.82;0.88;;;;;;;;;;5011998;28;20033;-42
2020/12/18 08:02:36;;;;;;;4.55;1.00;;;;;;;;;;5012365;28;20068;-42
2020/12/18 08:05:03;;;;;;;11.18;1.00;;;;;;;;;;5012192;28;20377;-41
2020/12/18 08:07:30;;;;;;;15.15;1.50;;;;;;;;;;5011967;28;20105;-42
2020/12/18 08:09:59;;;;;;;9.55;1.05;;;;;;;;;;5012677;28;20025;-42
2020/12/18 08:12:28;;;;;;;12.05;1.60;;;;;;;;;;5012238;28;20077;-42
2020/12/18 08:15:15;;;;;;;5.43;1.00;;;;;;;;;;5012164;28;20472;-41
2020/12/18 08:17:44;;;;;;;9.02;1.20;;;;;;;;;;5012198;28;20048;-42
2020/12/18 08:20:14;;;;;;;5.95;0.80;;;;;;;;;;5011533;28;20068;-42
2020/12/18 08:22:43;;;;;;;3.28;0.60;;;;;;;;;;5012201;28;20030;-42
2020/12/18 08:25:11;;;;;;;12.07;1.13;;;;;;;;;;5012334;28;20044;-42
2020/12/18 08:27:41;;;;;;;11.35;1.42;;;;;;;;;;5012085;28;20076;-42
2020/12/18 08:30:09;;;;;;;15.57;1.35;;;;;;;;;;5011223;28;20536;-42
2020/12/18 08:32:37;;;;;;;7.78;1.30;;;;;;;;;;5011902;28;20072;-41
2020/12/18 08:35:08;;;;;;;15.18;1.67;;;;;;;;;;5011949;28;20061;-42
2020/12/18 08:37:35;;;;;;;15.93;1.75;;;;;;;;;;5012087;28;20051;-42
2020/12/18 08:40:03;;;;;;;14.90;1.90;;;;;;;;;;5010910;28;20042;-42
2020/12/18 08:42:30;;;;;;;9.05;1.45;;;;;;;;;;5012155;28;20026;-41
2020/12/18 08:44:59;;;;;;;12.10;1.38;;;;;;;;;;5011804;28;20022;-41
2020/12/18 08:47:27;;;;;;;20.00;2.35;;;;;;;;;;5012021;28;20033;-42
2020/12/18 08:49:56;;;;;;;11.77;1.60;;;;;;;;;;5011329;28;20018;-44
2020/12/18 08:52:30;;;;;;;14.07;1.42;;;;;;;;;;5011949;28;20101;-46
2020/12/18 08:55:02;;;;;;;11.73;1.60;;;;;;;;;;5011760;28;20022;-45
2020/12/18 08:57:33;;;;;;;10.30;1.63;;;;;;;;;;5011827;28;20038;-47
2020/12/18 09:00:06;;;;;;;19.10;2.40;;;;;;;;;;5011801;28;20470;-43
2020/12/18 09:02:34;;;;;;;15.07;1.55;;;;;;;;;;5011862;28;20367;-43
2020/12/18 09:05:10;;;;;;;13.38;2.30;;;;;;;;;;5011927;28;20022;-45
2020/12/18 09:07:37;;;;;;;9.90;1.42;;;;;;;;;;5011723;28;20080;-47
2020/12/18 09:10:05;;;;;;;13.80;1.23;;;;;;;;;;5011667;28;20049;-47
2020/12/18 09:12:33;;;;;;;18.75;2.13;;;;;;;;;;5011909;28;20128;-45
2020/12/18 09:15:17;;;;;;;13.25;1.60;;;;;;;;;;5012622;28;20057;-43
2020/12/18 09:17:44;;;;;;;12.13;1.30;;;;;;;;;;5015162;28;20045;-46
2020/12/18 09:20:23;;;;;;;11.85;1.55;;;;;;;;;;5015176;28;20101;-47
2020/12/18 09:22:58;;;;;;;21.13;1.95;;;;;;;;;;5014370;28;20385;-48
2020/12/18 09:25:24;;;;;;;14.18;1.58;;;;;;;;;;5014991;28;20030;-48
2020/12/18 09:27:52;;;;;;;12.30;1.73;;;;;;;;;;5015426;28;20469;-44
2020/12/18 09:30:26;;;;;;;17.30;1.98;;;;;;;;;;5014529;28;20436;-47
2020/12/18 09:33:12;;;;;;;10.15;2.15;;;;;;;;;;5015454;28;20508;-47
2020/12/18 09:35:39;;;;;;;13.80;1.60;;;;;;;;;;5015152;28;20513;-48
2020/12/18 09:38:06;;;;;;;11.57;1.90;;;;;;;;;;5014856;28;20030;-50
2020/12/18 09:40:33;;;;;;;45.90;4.97;;;;;;;;;;5014355;28;20041;-46
2020/12/18 09:43:00;;;;;;;45.72;5.20;;;;;;;;;;5013541;28;20034;-47
2020/12/18 09:45:27;;;;;;;44.40;5.22;;;;;;;;;;5015067;28;20017;-47
2020/12/18 09:47:55;;;;;;;41.35;5.72;;;;;;;;;;5014911;28;20077;-46
2020/12/18 09:50:22;;;;;;;72.00;7.50;;;;;;;;;;5014494;28;20478;-47
2020/12/18 09:52:49;;;;;;;57.58;5.10;;;;;;;;;;5014623;28;20076;-46
2020/12/18 09:55:16;;;;;;;39.05;4.80;;;;;;;;;;5015003;28;20026;-48
2020/12/18 09:57:43;;;;;;;31.67;4.57;;;;;;;;;;5014532;28;20033;-43
2020/12/18 10:00:11;;;;;;;26.88;3.60;;;;;;;;;;5013926;28;20437;-44
2020/12/18 10:02:38;;;;;;;27.02;3.67;;;;;;;;;;5013492;28;20753;-46
2020/12/18 10:05:05;;;;;;;27.50;3.92;;;;;;;;;;5014949;28;20072;-46
2020/12/18 10:07:33;;;;;;;25.10;3.58;;;;;;;;;;5014579;28;20021;-44
2020/12/18 10:10:00;;;;;;;24.95;3.08;;;;;;;;;;5014243;28;20486;-43
2020/12/18 10:12:27;;;;;;;12.90;2.13;;;;;;;;;;5014189;28;20068;-46
2020/12/18 10:14:54;;;;;;;31.58;3.03;;;;;;;;;;5014507;28;20068;-44
2020/12/18 10:17:21;;;;;;;48.00;3.65;;;;;;;;;;5013698;28;20045;-43
2020/12/18 10:19:48;;;;;;;45.00;5.10;;;;;;;;;;5013062;28;20413;-43
2020/12/18 10:22:15;;;;;;;27.02;4.28;;;;;;;;;;5014438;28;20029;-45
2020/12/18 10:24:42;;;;;;;31.48;3.38;;;;;;;;;;5014591;28;20037;-46
2020/12/18 10:27:09;;;;;;;26.58;2.70;;;;;;;;;;5013500;28;20022;-47
2020/12/18 10:29:36;;;;;;;24.77;3.03;;;;;;;;;;5013651;28;20026;-44
2020/12/18 10:32:03;;;;;;;28.23;3.45;;;;;;;;;;5014332;28;20022;-45
2020/12/18 10:34:30;;;;;;;20.38;2.92;;;;;;;;;;5014307;28;20515;-45
2020/12/18 10:36:57;;;;;;;19.50;2.58;;;;;;;;;;5013790;28;20389;-45
2020/12/18 10:39:25;;;;;;;23.80;3.10;;;;;;;;;;5013868;28;20025;-44
2020/12/18 10:41:52;;;;;;;23.88;3.03;;;;;;;;;;5013500;28;20045;-45
2020/12/18 10:44:20;;;;;;;17.15;2.38;;;;;;;;;;5013261;28;20429;-41
2020/12/18 10:46:47;;;;;;;28.83;3.63;;;;;;;;;;5013061;28;20057;-45
2020/12/18 10:49:15;;;;;;;51.30;4.75;;;;;;;;;;5013927;28;20041;-42
2020/12/18 10:51:42;;;;;;;38.80;4.75;;;;;;;;;;5013449;28;20030;-41
2020/12/18 10:54:10;;;;;;;26.90;3.17;;;;;;;;;;5013601;28;20026;-42
2020/12/18 10:56:55;;;;;;;62.67;6.30;;;;;;;;;;5013806;28;20037;-41
2020/12/18 10:59:24;;;;;;;39.20;5.18;;;;;;;;;;5013995;28;20072;-41
2020/12/18 11:01:55;;;;;;;28.75;3.90;;;;;;;;;;5013261;28;20489;-41
2020/12/18 11:04:22;;;;;;;39.15;4.88;;;;;;;;;;5013042;28;20018;-41
2020/12/18 11:06:49;;;;;;;29.60;3.42;;;;;;;;;;5013701;28;20052;-41
2020/12/18 11:09:16;;;;;;;32.28;3.35;;;;;;;;;;5013637;28;20086;-41
2020/12/18 11:11:44;;;;;;;38.60;4.28;;;;;;;;;;5012718;28;20025;-40
2020/12/18 11:14:29;;;;;;;78.07;5.78;;;;;;;;;;4549167;22;21913;-46
2020/12/18 11:16:57;;;;;;;66.15;5.95;;;;;;;;;;5023750;28;20073;-51
2020/12/18 11:19:24;;;;;;;178.85;10.45;;;;;;;;;;5029328;28;20407;-47
2020/12/18 11:21:52;;;;;;;69.85;7.25;;;;;;;;;;5024663;28;20057;-47
2020/12/18 11:24:19;;;;;;;357.67;34.83;;;;;;;;;;5026449;28;20107;-47
2020/12/18 11:26:52;;;;;;;118.25;10.60;;;;;;;;;;5020799;28;20034;-44
2020/12/18 11:29:21;;;;;;;55.90;6.63;;;;;;;;;;5029211;28;20018;-45
2020/12/18 11:31:48;;;;;;;71.85;8.05;;;;;;;;;;5023839;28;20045;-48
2020/12/18 11:34:15;;;;;;;109.82;11.73;;;;;;;;;;5030224;28;20013;-45
2020/12/18 11:36:42;;;;;;;38.90;3.90;;;;;;;;;;5027697;28;20159;-45
2020/12/18 11:39:09;;;;;;;39.30;4.30;;;;;;;;;;5028228;28;20028;-44
2020/12/18 11:41:36;;;;;;;69.25;7.28;;;;;;;;;;5022746;28;20493;-45
2020/12/18 11:44:03;;;;;;;446.42;46.15;;;;;;;;;;5021536;28;20028;-43
2020/12/18 11:46:30;;;;;;;192.52;20.27;;;;;;;;;;5025276;28;20029;-43
2020/12/18 11:48:57;;;;;;;314.80;30.50;;;;;;;;;;5024460;28;20028;-42
2020/12/18 11:51:29;;;;;;;177.88;18.63;;;;;;;;;;5026723;28;20713;-42
2020/12/18 11:53:56;;;;;;;187.27;17.23;;;;;;;;;;5028209;28;20487;-43
2020/12/18 11:56:23;;;;;;;183.27;19.23;;;;;;;;;;5025388;28;20041;-44
2020/12/18 11:58:50;;;;;;;145.10;18.23;;;;;;;;;;5021158;28;20537;-41
2020/12/18 12:01:23;;;;;;;166.43;15.38;;;;;;;;;;5023728;28;20876;-42
2020/12/18 12:03:51;;;;;;;152.07;16.20;;;;;;;;;;5019094;28;20400;-42
2020/12/18 12:06:18;;;;;;;196.45;17.10;;;;;;;;;;5024691;28;20350;-42
2020/12/18 12:08:46;;;;;;;249.07;24.77;;;;;;;;;;5018490;28;20026;-42
2020/12/18 12:11:15;;;;;;;208.20;22.25;;;;;;;;;;5025583;28;20473;-43
2020/12/18 12:13:43;;;;;;;157.70;17.80;;;;;;;;;;5021775;28;20073;-42
2020/12/18 12:16:11;;;;;;;169.45;16.17;;;;;;;;;;5019834;28;20108;-43
2020/12/18 12:18:39;;;;;;;139.10;15.65;;;;;;;;;;5028392;28;20405;-42
2020/12/18 12:21:06;;;;;;;107.88;11.35;;;;;;;;;;5024622;28;20585;-42
2020/12/18 12:23:33;;;;;;;99.50;12.10;;;;;;;;;;5024085;28;20014;-42
2020/12/18 12:26:00;;;;;;;82.07;10.57;;;;;;;;;;5023278;28;20493;-42
2020/12/18 12:28:27;;;;;;;89.30;9.55;;;;;;;;;;5017159;28;20029;-42
2020/12/18 12:30:54;;;;;;;68.50;9.07;;;;;;;;;;5021266;28;20049;-43
2020/12/18 12:33:21;;;;;;;67.65;7.88;;;;;;;;;;5028244;28;20013;-47
2020/12/18 12:35:48;;;;;;;78.15;9.80;;;;;;;;;;5023057;28;20034;-45
2020/12/18 12:38:15;;;;;;;42.97;6.13;;;;;;;;;;5007147;28;20141;-47
2020/12/18 12:40:42;;;;;;;56.05;7.07;;;;;;;;;;5005665;28;20429;-45
2020/12/18 12:43:09;;;;;;;125.20;11.27;;;;;;;;;;5019408;28;20037;-50
2020/12/18 12:45:36;;;;;;;81.88;9.65;;;;;;;;;;5018955;28;20049;-48
2020/12/18 12:48:03;;;;;;;102.85;10.35;;;;;;;;;;5027484;28;20425;-46
2020/12/18 12:50:30;;;;;;;56.83;8.63;;;;;;;;;;5026880;28;20060;-47
2020/12/18 12:52:57;;;;;;;74.25;8.18;;;;;;;;;;5022365;28;20667;-49
2020/12/18 12:55:24;;;;;;;67.07;8.68;;;;;;;;;;5019242;28;20460;-48
2020/12/18 12:57:51;;;;;;;72.53;6.50;;;;;;;;;;5022782;28;20416;-47
2020/12/18 13:00:18;;;;;;;63.05;6.47;;;;;;;;;;5016198;28;20021;-46
2020/12/18 13:02:45;;;;;;;52.65;5.80;;;;;;;;;;5021658;28;20045;-47
2020/12/18 13:05:13;;;;;;;56.03;6.72;;;;;;;;;;5022757;28;20018;-47
2020/12/18 13:07:40;;;;;;;62.97;6.47;;;;;;;;;;5021212;28;20037;-47
2020/12/18 13:10:07;;;;;;;56.88;6.90;;;;;;;;;;5017672;28;20041;-45
2020/12/18 13:12:34;;;;;;;55.90;6.90;;;;;;;;;;5020686;28;20053;-47
2020/12/18 13:15:01;;;;;;;57.00;5.97;;;;;;;;;;5021265;28;20400;-45
2020/12/18 13:17:28;;;;;;;70.45;7.15;;;;;;;;;;5020037;28;20044;-46
2020/12/18 13:19:56;;;;;;;62.53;6.32;;;;;;;;;;5027348;28;20021;-47
2020/12/18 13:22:23;;;;;;;81.50;7.40;;;;;;;;;;5018982;28;20061;-46
2020/12/18 13:24:50;;;;;;;72.68;6.97;;;;;;;;;;5019753;28;20021;-46
2020/12/18 13:27:17;;;;;;;83.93;8.18;;;;;;;;;;5022494;28;20116;-44
2020/12/18 13:29:44;;;;;;;59.55;6.28;;;;;;;;;;5027011;28;20045;-45
2020/12/18 13:32:11;;;;;;;62.55;6.35;;;;;;;;;;5019545;28;20042;-44
2020/12/18 13:34:38;;;;;;;64.03;7.32;;;;;;;;;;5028011;28;20101;-46
2020/12/18 13:37:05;;;;;;;66.32;7.47;;;;;;;;;;5025380;28;20033;-46
2020/12/18 13:39:32;;;;;;;81.90;8.38;;;;;;;;;;5027990;28;20026;-46
2020/12/18 13:41:59;;;;;;;103.97;10.00;;;;;;;;;;5024458;28;20022;-44
2020/12/18 13:44:26;;;;;;;80.60;9.23;;;;;;;;;;5025165;28;20017;-44
2020/12/18 13:46:53;;;;;;;229.23;16.75;;;;;;;;;;5024916;28;20114;-48
2020/12/18 13:49:20;;;;;;;167.38;12.38;;;;;;;;;;5025596;28;20117;-44
2020/12/18 13:51:50;;;;;;;101.13;11.38;;;;;;;;;;5007597;28;20421;-47
2020/12/18 13:54:18;;;;;;;76.18;9.10;;;;;;;;;;5026316;28;20029;-43
2020/12/18 13:56:46;;;;;;;98.68;10.38;;;;;;;;;;5018337;28;20085;-42
2020/12/18 13:59:13;;;;;;;77.03;9.82;;;;;;;;;;5029547;28;20105;-45
2020/12/18 14:01:40;;;;;;;67.35;9.23;;;;;;;;;;5023232;28;20421;-44
2020/12/18 14:04:08;;;;;;;85.40;9.15;;;;;;;;;;5025852;28;20021;-45
2020/12/18 14:06:35;;;;;;;98.25;9.98;;;;;;;;;;5024927;28;20021;-46
2020/12/18 14:09:02;;;;;;;75.82;9.68;;;;;;;;;;5026596;28;20037;-51
2020/12/18 14:21:15;;;;;;;93.18;9.60;;;;;;;;;;4474466;22;22483;-50
2020/12/18 14:23:43;;;;;;;72.43;9.32;;;;;;;;;;5006099;28;20718;-46
2020/12/18 14:26:12;;;;;;;43.75;7.82;;;;;;;;;;4999249;28;20045;-46
2020/12/18 14:28:39;;;;;;;67.38;9.00;;;;;;;;;;5006542;28;20420;-45
2020/12/18 14:31:06;;;;;;;62.88;7.35;;;;;;;;;;5001977;28;20097;-49
2020/12/18 14:33:33;;;;;;;53.53;7.72;;;;;;;;;;5005211;28;20026;-45
2020/12/18 14:36:00;;;;;;;62.35;7.05;;;;;;;;;;5006415;28;20034;-47
2020/12/18 14:38:27;;;;;;;80.05;8.32;;;;;;;;;;5011904;28;20034;-45
2020/12/18 14:40:54;;;;;;;75.40;8.68;;;;;;;;;;5016616;28;20031;-48
2020/12/18 14:43:22;;;;;;;86.38;8.27;;;;;;;;;;5005769;28;20029;-47
2020/12/18 14:45:49;;;;;;;67.38;8.32;;;;;;;;;;5000073;28;20015;-48
2020/12/18 14:48:16;;;;;;;81.97;10.23;;;;;;;;;;5010470;28;20037;-42
2020/12/18 14:50:44;;;;;;;60.28;8.27;;;;;;;;;;5005832;28;20457;-49
2020/12/18 14:53:11;;;;;;;70.15;8.05;;;;;;;;;;5005960;28;20034;-44
2020/12/18 14:55:38;;;;;;;71.45;8.00;;;;;;;;;;5006049;28;20030;-42
2020/12/18 14:58:05;;;;;;;81.05;8.35;;;;;;;;;;4987546;28;20044;-44